sensor_id;sensor_type;location;lat;lon;timestamp;temperature;humidity
15450;DHT22;7826;49.784;9.934;2023-05-20T00:00:59;11.80;99.90
15450;DHT22;7826;49.784;9.934;2023-05-20T00:03:26;11.90;98.80
15450;DHT22;7826;49.784;9.934;2023-05-20T00:05:52;11.80;99.90
15450;DHT22;7826;49.784;9.934;2023-05-20T00:08:19;11.80;99.40
15450;DHT22;7826;49.784;9.934;2023-05-20T00:10:45;11.90;99.20
15450;DHT22;7826;49.784;9.934;2023-05-20T00:13:12;11.90;98.90
15450;DHT22;7826;49.784;9.934;2023-05-20T00:15:38;11.90;99.80
15450;DHT22;7826;49.784;9.934;2023-05-20T00:18:05;11.90;99.00
15450;DHT22;7826;49.784;9.934;2023-05-20T00:20:31;12.00;99.50
15450;DHT22;7826;49.784;9.934;2023-05-20T00:22:58;11.90;99.40
15450;DHT22;7826;49.784;9.934;2023-05-20T00:25:25;11.80;99.90
15450;DHT22;7826;49.784;9.934;2023-05-20T00:27:52;11.70;99.90
15450;DHT22;7826;49.784;9.934;2023-05-20T00:30:18;11.70;99.90
15450;DHT22;7826;49.784;9.934;2023-05-20T00:32:45;11.70;99.90
15450;DHT22;7826;49.784;9.934;2023-05-20T00:35:11;11.80;99.90
15450;DHT22;7826;49.784;9.934;2023-05-20T00:37:38;11.70;99.90
15450;DHT22;7826;49.784;9.934;2023-05-20T00:40:05;11.70;99.90
15450;DHT22;7826;49.784;9.934;2023-05-20T00:42:32;11.60;99.90
15450;DHT22;7826;49.784;9.934;2023-05-20T00:44:58;11.60;99.90
15450;DHT22;7826;49.784;9.934;2023-05-20T00:47:34;11.60;99.90
15450;DHT22;7826;49.784;9.934;2023-05-20T00:50:05;11.50;99.90
15450;DHT22;7826;49.784;9.934;2023-05-20T00:52:31;11.50;99.90
15450;DHT22;7826;49.784;9.934;2023-05-20T00:54:59;11.60;99.90
15450;DHT22;7826;49.784;9.934;2023-05-20T00:57:26;11.50;99.90
15450;DHT22;7826;49.784;9.934;2023-05-20T00:59:53;11.50;99.90
15450;DHT22;7826;49.784;9.934;2023-05-20T01:02:20;11.40;99.90
15450;DHT22;7826;49.784;9.934;2023-05-20T01:04:46;11.30;99.90
15450;DHT22;7826;49.784;9.934;2023-05-20T01:07:15;11.30;99.90
15450;DHT22;7826;49.784;9.934;2023-05-20T01:09:42;11.30;99.90
15450;DHT22;7826;49.784;9.934;2023-05-20T01:12:25;11.20;99.90
15450;DHT22;7826;49.784;9.934;2023-05-20T01:15:02;11.30;99.90
15450;DHT22;7826;49.784;9.934;2023-05-20T01:17:31;11.30;99.90
15450;DHT22;7826;49.784;9.934;2023-05-20T01:19:59;11.30;99.90
15450;DHT22;7826;49.784;9.934;2023-05-20T01:22:27;11.30;99.90
15450;DHT22;7826;49.784;9.934;2023-05-20T01:24:54;11.40;99.90
15450;DHT22;7826;49.784;9.934;2023-05-20T01:27:22;11.40;99.90
15450;DHT22;7826;49.784;9.934;2023-05-20T01:29:50;11.40;99.90
15450;DHT22;7826;49.784;9.934;2023-05-20T01:32:40;11.40;99.90
15450;DHT22;7826;49.784;9.934;2023-05-20T01:35:08;11.40;99.90
15450;DHT22;7826;49.784;9.934;2023-05-20T01:37:39;11.30;99.90
15450;DHT22;7826;49.784;9.934;2023-05-20T01:40:07;11.20;99.90
15450;DHT22;7826;49.784;9.934;2023-05-20T01:42:35;11.30;99.90
15450;DHT22;7826;49.784;9.934;2023-05-20T01:45:02;11.20;99.90
15450;DHT22;7826;49.784;9.934;2023-05-20T01:47:28;11.30;99.90
15450;DHT22;7826;49.784;9.934;2023-05-20T01:49:56;11.30;99.90
15450;DHT22;7826;49.784;9.934;2023-05-20T01:52:22;11.40;99.90
15450;DHT22;7826;49.784;9.934;2023-05-20T01:54:49;11.40;99.90
15450;DHT22;7826;49.784;9.934;2023-05-20T01:57:22;11.30;99.90
15450;DHT22;7826;49.784;9.934;2023-05-20T01:59:49;11.10;99.90
15450;DHT22;7826;49.784;9.934;2023-05-20T02:02:16;11.10;99.90
15450;DHT22;7826;49.784;9.934;2023-05-20T02:04:44;11.10;99.90
15450;DHT22;7826;49.784;9.934;2023-05-20T02:07:14;11.10;99.90
15450;DHT22;7826;49.784;9.934;2023-05-20T02:09:41;10.90;99.90
15450;DHT22;7826;49.784;9.934;2023-05-20T02:12:08;10.80;99.90
15450;DHT22;7826;49.784;9.934;2023-05-20T02:14:35;11.00;99.90
15450;DHT22;7826;49.784;9.934;2023-05-20T02:17:02;11.00;99.90
15450;DHT22;7826;49.784;9.934;2023-05-20T02:19:29;10.90;99.90
15450;DHT22;7826;49.784;9.934;2023-05-20T02:21:55;10.80;99.90
15450;DHT22;7826;49.784;9.934;2023-05-20T02:24:22;10.70;99.90
15450;DHT22;7826;49.784;9.934;2023-05-20T02:26:48;10.50;99.90
15450;DHT22;7826;49.784;9.934;2023-05-20T02:29:16;10.50;99.90
15450;DHT22;7826;49.784;9.934;2023-05-20T02:31:43;10.70;99.90
15450;DHT22;7826;49.784;9.934;2023-05-20T02:34:09;10.80;99.90
15450;DHT22;7826;49.784;9.934;2023-05-20T02:36:36;10.70;99.90
15450;DHT22;7826;49.784;9.934;2023-05-20T02:39:02;10.70;99.90
15450;DHT22;7826;49.784;9.934;2023-05-20T02:41:29;10.80;99.90
15450;DHT22;7826;49.784;9.934;2023-05-20T02:43:55;10.70;99.90
15450;DHT22;7826;49.784;9.934;2023-05-20T02:46:22;10.70;99.90
15450;DHT22;7826;49.784;9.934;2023-05-20T02:48:48;10.60;99.90
15450;DHT22;7826;49.784;9.934;2023-05-20T02:51:15;10.60;99.90
15450;DHT22;7826;49.784;9.934;2023-05-20T02:53:41;10.60;99.90
15450;DHT22;7826;49.784;9.934;2023-05-20T02:56:08;10.60;99.90
15450;DHT22;7826;49.784;9.934;2023-05-20T02:58:34;10.60;99.90
15450;DHT22;7826;49.784;9.934;2023-05-20T03:01:01;10.70;99.90
15450;DHT22;7826;49.784;9.934;2023-05-20T03:03:28;10.70;99.90
15450;DHT22;7826;49.784;9.934;2023-05-20T03:05:54;10.70;99.90
15450;DHT22;7826;49.784;9.934;2023-05-20T03:08:22;10.80;99.90
15450;DHT22;7826;49.784;9.934;2023-05-20T03:10:48;10.80;99.90
15450;DHT22;7826;49.784;9.934;2023-05-20T03:13:15;10.80;99.90
15450;DHT22;7826;49.784;9.934;2023-05-20T03:15:42;10.80;99.90
15450;DHT22;7826;49.784;9.934;2023-05-20T03:18:11;10.80;99.90
15450;DHT22;7826;49.784;9.934;2023-05-20T03:20:39;10.80;99.90
15450;DHT22;7826;49.784;9.934;2023-05-20T03:23:07;10.90;99.90
15450;DHT22;7826;49.784;9.934;2023-05-20T03:25:33;10.80;99.90
15450;DHT22;7826;49.784;9.934;2023-05-20T03:28:00;10.80;99.90
15450;DHT22;7826;49.784;9.934;2023-05-20T03:30:27;10.80;99.90
15450;DHT22;7826;49.784;9.934;2023-05-20T03:32:54;10.80;99.90
15450;DHT22;7826;49.784;9.934;2023-05-20T03:35:22;11.00;99.90
15450;DHT22;7826;49.784;9.934;2023-05-20T03:37:49;10.90;99.90
15450;DHT22;7826;49.784;9.934;2023-05-20T03:40:18;11.10;99.90
15450;DHT22;7826;49.784;9.934;2023-05-20T03:42:48;11.10;99.90
15450;DHT22;7826;49.784;9.934;2023-05-20T03:45:17;11.10;99.90
15450;DHT22;7826;49.784;9.934;2023-05-20T03:47:44;11.10;99.90
15450;DHT22;7826;49.784;9.934;2023-05-20T03:50:10;11.20;99.90
15450;DHT22;7826;49.784;9.934;2023-05-20T03:52:37;11.10;99.90
15450;DHT22;7826;49.784;9.934;2023-05-20T03:55:06;11.10;99.90
15450;DHT22;7826;49.784;9.934;2023-05-20T03:57:33;11.10;99.90
15450;DHT22;7826;49.784;9.934;2023-05-20T03:59:59;11.20;99.90
15450;DHT22;7826;49.784;9.934;2023-05-20T04:02:28;11.30;99.90
15450;DHT22;7826;49.784;9.934;2023-05-20T04:04:54;11.30;99.90
15450;DHT22;7826;49.784;9.934;2023-05-20T04:07:22;11.40;99.90
15450;DHT22;7826;49.784;9.934;2023-05-20T04:09:49;11.40;99.90
15450;DHT22;7826;49.784;9.934;2023-05-20T04:12:16;11.30;99.90
15450;DHT22;7826;49.784;9.934;2023-05-20T04:14:44;11.40;99.90
15450;DHT22;7826;49.784;9.934;2023-05-20T04:17:11;11.30;99.90
15450;DHT22;7826;49.784;9.934;2023-05-20T04:19:37;11.40;99.90
15450;DHT22;7826;49.784;9.934;2023-05-20T04:22:04;11.40;99.90
15450;DHT22;7826;49.784;9.934;2023-05-20T04:24:30;11.30;99.90
15450;DHT22;7826;49.784;9.934;2023-05-20T04:26:57;11.40;99.90
15450;DHT22;7826;49.784;9.934;2023-05-20T04:29:23;11.50;99.90
15450;DHT22;7826;49.784;9.934;2023-05-20T04:31:50;11.50;99.90
15450;DHT22;7826;49.784;9.934;2023-05-20T04:34:17;11.60;99.90
15450;DHT22;7826;49.784;9.934;2023-05-20T04:36:45;11.60;99.90
15450;DHT22;7826;49.784;9.934;2023-05-20T04:39:12;11.70;99.90
15450;DHT22;7826;49.784;9.934;2023-05-20T04:41:39;11.70;99.90
15450;DHT22;7826;49.784;9.934;2023-05-20T04:44:05;11.70;99.90
15450;DHT22;7826;49.784;9.934;2023-05-20T04:46:32;11.70;99.90
15450;DHT22;7826;49.784;9.934;2023-05-20T04:48:59;11.60;99.90
15450;DHT22;7826;49.784;9.934;2023-05-20T04:51:25;11.60;99.90
15450;DHT22;7826;49.784;9.934;2023-05-20T04:53:52;11.50;99.90
15450;DHT22;7826;49.784;9.934;2023-05-20T04:56:18;11.50;99.90
15450;DHT22;7826;49.784;9.934;2023-05-20T04:58:45;11.60;99.90
15450;DHT22;7826;49.784;9.934;2023-05-20T05:01:11;11.70;99.90
15450;DHT22;7826;49.784;9.934;2023-05-20T05:03:38;11.60;99.90
15450;DHT22;7826;49.784;9.934;2023-05-20T05:06:04;11.60;99.90
15450;DHT22;7826;49.784;9.934;2023-05-20T05:08:31;11.70;99.90
15450;DHT22;7826;49.784;9.934;2023-05-20T05:10:58;11.70;99.90
15450;DHT22;7826;49.784;9.934;2023-05-20T05:13:24;11.80;99.90
15450;DHT22;7826;49.784;9.934;2023-05-20T05:16:01;11.90;99.90
15450;DHT22;7826;49.784;9.934;2023-05-20T05:18:28;11.90;99.90
15450;DHT22;7826;49.784;9.934;2023-05-20T05:20:59;12.00;99.90
15450;DHT22;7826;49.784;9.934;2023-05-20T05:23:26;12.00;99.90
15450;DHT22;7826;49.784;9.934;2023-05-20T05:25:53;12.10;99.90
15450;DHT22;7826;49.784;9.934;2023-05-20T05:28:19;12.10;99.90
15450;DHT22;7826;49.784;9.934;2023-05-20T05:30:46;12.10;99.90
15450;DHT22;7826;49.784;9.934;2023-05-20T05:33:16;12.20;99.90
15450;DHT22;7826;49.784;9.934;2023-05-20T05:35:43;12.30;99.90
15450;DHT22;7826;49.784;9.934;2023-05-20T05:38:09;12.30;99.90
15450;DHT22;7826;49.784;9.934;2023-05-20T05:40:36;12.20;99.90
15450;DHT22;7826;49.784;9.934;2023-05-20T05:43:02;12.20;99.90
15450;DHT22;7826;49.784;9.934;2023-05-20T05:45:29;12.10;99.90
15450;DHT22;7826;49.784;9.934;2023-05-20T05:47:56;12.20;99.90
15450;DHT22;7826;49.784;9.934;2023-05-20T05:50:22;12.10;99.90
15450;DHT22;7826;49.784;9.934;2023-05-20T05:52:49;12.20;99.90
15450;DHT22;7826;49.784;9.934;2023-05-20T05:55:15;12.30;99.90
15450;DHT22;7826;49.784;9.934;2023-05-20T05:57:43;12.30;99.90
15450;DHT22;7826;49.784;9.934;2023-05-20T06:00:10;12.30;99.90
15450;DHT22;7826;49.784;9.934;2023-05-20T06:02:37;12.30;99.90
15450;DHT22;7826;49.784;9.934;2023-05-20T06:05:04;12.20;99.90
15450;DHT22;7826;49.784;9.934;2023-05-20T06:07:31;12.10;99.90
15450;DHT22;7826;49.784;9.934;2023-05-20T06:09:57;12.30;99.90
15450;DHT22;7826;49.784;9.934;2023-05-20T06:12:24;12.20;99.90
15450;DHT22;7826;49.784;9.934;2023-05-20T06:14:51;12.40;99.90
15450;DHT22;7826;49.784;9.934;2023-05-20T06:17:17;12.30;99.90
15450;DHT22;7826;49.784;9.934;2023-05-20T06:19:44;12.40;99.90
15450;DHT22;7826;49.784;9.934;2023-05-20T06:22:11;12.20;99.90
15450;DHT22;7826;49.784;9.934;2023-05-20T06:24:38;12.30;99.90
15450;DHT22;7826;49.784;9.934;2023-05-20T06:27:04;12.30;99.90
15450;DHT22;7826;49.784;9.934;2023-05-20T06:29:31;12.40;99.90
15450;DHT22;7826;49.784;9.934;2023-05-20T06:31:58;12.30;99.90
15450;DHT22;7826;49.784;9.934;2023-05-20T06:34:25;12.30;99.90
15450;DHT22;7826;49.784;9.934;2023-05-20T06:36:52;12.40;99.90
15450;DHT22;7826;49.784;9.934;2023-05-20T06:39:18;12.40;99.90
15450;DHT22;7826;49.784;9.934;2023-05-20T06:41:45;12.50;99.90
15450;DHT22;7826;49.784;9.934;2023-05-20T06:44:12;12.60;99.90
15450;DHT22;7826;49.784;9.934;2023-05-20T06:46:38;12.70;99.90
15450;DHT22;7826;49.784;9.934;2023-05-20T06:49:05;12.60;99.90
15450;DHT22;7826;49.784;9.934;2023-05-20T06:51:32;12.60;99.90
15450;DHT22;7826;49.784;9.934;2023-05-20T06:53:58;12.50;99.90
15450;DHT22;7826;49.784;9.934;2023-05-20T06:56:25;12.60;99.90
15450;DHT22;7826;49.784;9.934;2023-05-20T06:59:01;12.70;99.90
15450;DHT22;7826;49.784;9.934;2023-05-20T07:01:27;12.70;99.90
15450;DHT22;7826;49.784;9.934;2023-05-20T07:03:54;12.60;99.90
15450;DHT22;7826;49.784;9.934;2023-05-20T07:06:20;12.80;99.90
15450;DHT22;7826;49.784;9.934;2023-05-20T07:08:47;12.90;99.90
15450;DHT22;7826;49.784;9.934;2023-05-20T07:11:13;12.90;99.90
15450;DHT22;7826;49.784;9.934;2023-05-20T07:13:40;13.00;99.90
15450;DHT22;7826;49.784;9.934;2023-05-20T07:16:06;13.00;99.90
15450;DHT22;7826;49.784;9.934;2023-05-20T07:18:33;12.90;99.90
15450;DHT22;7826;49.784;9.934;2023-05-20T07:20:59;13.00;99.90
15450;DHT22;7826;49.784;9.934;2023-05-20T07:23:26;12.90;99.90
15450;DHT22;7826;49.784;9.934;2023-05-20T07:25:52;12.80;99.90
15450;DHT22;7826;49.784;9.934;2023-05-20T07:28:19;12.90;99.90
15450;DHT22;7826;49.784;9.934;2023-05-20T07:30:46;13.00;99.90
15450;DHT22;7826;49.784;9.934;2023-05-20T07:33:16;13.20;99.90
15450;DHT22;7826;49.784;9.934;2023-05-20T07:35:43;13.20;99.90
15450;DHT22;7826;49.784;9.934;2023-05-20T07:38:11;13.30;99.90
15450;DHT22;7826;49.784;9.934;2023-05-20T07:40:39;13.50;99.90
15450;DHT22;7826;49.784;9.934;2023-05-20T07:43:09;13.50;99.90
15450;DHT22;7826;49.784;9.934;2023-05-20T07:45:39;13.60;99.90
15450;DHT22;7826;49.784;9.934;2023-05-20T07:48:05;13.70;99.90
15450;DHT22;7826;49.784;9.934;2023-05-20T07:50:35;13.80;99.90
15450;DHT22;7826;49.784;9.934;2023-05-20T07:53:02;13.70;99.90
15450;DHT22;7826;49.784;9.934;2023-05-20T07:55:33;13.70;99.90
15450;DHT22;7826;49.784;9.934;2023-05-20T07:58:00;13.90;99.90
15450;DHT22;7826;49.784;9.934;2023-05-20T08:00:32;13.90;99.90
15450;DHT22;7826;49.784;9.934;2023-05-20T08:02:59;13.80;99.90
15450;DHT22;7826;49.784;9.934;2023-05-20T08:05:25;13.90;99.90
15450;DHT22;7826;49.784;9.934;2023-05-20T08:07:52;14.10;99.90
15450;DHT22;7826;49.784;9.934;2023-05-20T08:10:19;14.30;99.90
15450;DHT22;7826;49.784;9.934;2023-05-20T08:12:45;14.30;99.90
15450;DHT22;7826;49.784;9.934;2023-05-20T08:15:12;14.40;99.90
15450;DHT22;7826;49.784;9.934;2023-05-20T08:17:38;14.40;99.90
15450;DHT22;7826;49.784;9.934;2023-05-20T08:20:05;14.50;99.90
15450;DHT22;7826;49.784;9.934;2023-05-20T08:22:33;14.70;99.90
15450;DHT22;7826;49.784;9.934;2023-05-20T08:25:01;14.70;99.90
15450;DHT22;7826;49.784;9.934;2023-05-20T08:27:27;14.80;99.90
15450;DHT22;7826;49.784;9.934;2023-05-20T08:29:54;15.00;99.90
15450;DHT22;7826;49.784;9.934;2023-05-20T08:32:20;15.20;99.90
15450;DHT22;7826;49.784;9.934;2023-05-20T08:34:47;15.40;99.90
15450;DHT22;7826;49.784;9.934;2023-05-20T08:37:14;15.50;99.90
15450;DHT22;7826;49.784;9.934;2023-05-20T08:39:41;15.60;99.90
15450;DHT22;7826;49.784;9.934;2023-05-20T08:42:08;15.60;99.90
15450;DHT22;7826;49.784;9.934;2023-05-20T08:45:03;15.50;99.90
15450;DHT22;7826;49.784;9.934;2023-05-20T08:47:52;15.50;99.90
15450;DHT22;7826;49.784;9.934;2023-05-20T08:50:19;15.30;99.90
15450;DHT22;7826;49.784;9.934;2023-05-20T08:52:46;15.30;99.90
15450;DHT22;7826;49.784;9.934;2023-05-20T08:55:24;15.40;99.90
15450;DHT22;7826;49.784;9.934;2023-05-20T08:57:53;15.50;99.90
15450;DHT22;7826;49.784;9.934;2023-05-20T09:00:21;15.40;99.90
15450;DHT22;7826;49.784;9.934;2023-05-20T09:02:52;15.40;99.90
15450;DHT22;7826;49.784;9.934;2023-05-20T09:05:20;15.10;99.90
15450;DHT22;7826;49.784;9.934;2023-05-20T09:07:47;15.30;99.90
15450;DHT22;7826;49.784;9.934;2023-05-20T09:10:14;15.30;99.90
15450;DHT22;7826;49.784;9.934;2023-05-20T09:12:41;15.20;99.90
15450;DHT22;7826;49.784;9.934;2023-05-20T09:15:07;15.20;99.90
15450;DHT22;7826;49.784;9.934;2023-05-20T09:17:35;15.20;99.90
15450;DHT22;7826;49.784;9.934;2023-05-20T09:20:06;15.20;99.90
15450;DHT22;7826;49.784;9.934;2023-05-20T09:22:34;15.30;99.90
15450;DHT22;7826;49.784;9.934;2023-05-20T09:25:00;15.50;99.90
15450;DHT22;7826;49.784;9.934;2023-05-20T09:27:27;15.50;99.90
15450;DHT22;7826;49.784;9.934;2023-05-20T09:29:53;15.60;99.90
15450;DHT22;7826;49.784;9.934;2023-05-20T09:32:20;15.50;99.90
15450;DHT22;7826;49.784;9.934;2023-05-20T09:34:49;15.60;99.90
15450;DHT22;7826;49.784;9.934;2023-05-20T09:37:17;15.40;99.90
15450;DHT22;7826;49.784;9.934;2023-05-20T09:39:56;15.20;99.90
15450;DHT22;7826;49.784;9.934;2023-05-20T09:42:27;15.30;99.90
15450;DHT22;7826;49.784;9.934;2023-05-20T09:44:57;15.40;99.90
15450;DHT22;7826;49.784;9.934;2023-05-20T09:47:24;15.50;99.90
15450;DHT22;7826;49.784;9.934;2023-05-20T09:49:51;15.60;99.90
15450;DHT22;7826;49.784;9.934;2023-05-20T09:52:20;16.00;99.90
15450;DHT22;7826;49.784;9.934;2023-05-20T09:54:47;16.10;99.90
15450;DHT22;7826;49.784;9.934;2023-05-20T09:57:14;16.30;99.90
15450;DHT22;7826;49.784;9.934;2023-05-20T09:59:41;16.30;99.90
15450;DHT22;7826;49.784;9.934;2023-05-20T10:02:09;16.00;99.90
15450;DHT22;7826;49.784;9.934;2023-05-20T10:04:39;16.10;99.90
15450;DHT22;7826;49.784;9.934;2023-05-20T10:07:31;16.30;99.90
15450;DHT22;7826;49.784;9.934;2023-05-20T10:12:55;16.90;99.90
15450;DHT22;7826;49.784;9.934;2023-05-20T10:15:48;17.00;99.90
15450;DHT22;7826;49.784;9.934;2023-05-20T10:21:02;16.40;99.90
15450;DHT22;7826;49.784;9.934;2023-05-20T10:23:29;16.60;99.90
15450;DHT22;7826;49.784;9.934;2023-05-20T10:25:57;16.70;99.90
15450;DHT22;7826;49.784;9.934;2023-05-20T10:28:28;16.70;99.90
15450;DHT22;7826;49.784;9.934;2023-05-20T10:30:56;16.70;99.90
15450;DHT22;7826;49.784;9.934;2023-05-20T10:33:25;16.60;99.90
15450;DHT22;7826;49.784;9.934;2023-05-20T10:35:53;16.60;99.90
15450;DHT22;7826;49.784;9.934;2023-05-20T10:38:20;16.60;99.90
15450;DHT22;7826;49.784;9.934;2023-05-20T10:40:47;16.40;99.90
15450;DHT22;7826;49.784;9.934;2023-05-20T10:43:15;16.60;99.90
15450;DHT22;7826;49.784;9.934;2023-05-20T10:45:57;16.90;99.90
15450;DHT22;7826;49.784;9.934;2023-05-20T10:48:28;17.10;99.90
15450;DHT22;7826;49.784;9.934;2023-05-20T10:50:56;17.30;99.40
15450;DHT22;7826;49.784;9.934;2023-05-20T10:53:25;17.40;99.30
15450;DHT22;7826;49.784;9.934;2023-05-20T10:55:53;17.40;99.10
15450;DHT22;7826;49.784;9.934;2023-05-20T10:58:23;18.00;99.10
15450;DHT22;7826;49.784;9.934;2023-05-20T11:00:53;18.20;97.60
15450;DHT22;7826;49.784;9.934;2023-05-20T11:03:23;17.80;97.90
15450;DHT22;7826;49.784;9.934;2023-05-20T11:05:50;17.50;98.20
15450;DHT22;7826;49.784;9.934;2023-05-20T11:08:17;17.60;98.30
15450;DHT22;7826;49.784;9.934;2023-05-20T11:10:44;17.80;97.20
15450;DHT22;7826;49.784;9.934;2023-05-20T11:13:12;17.80;97.50
15450;DHT22;7826;49.784;9.934;2023-05-20T11:15:39;18.00;97.10
15450;DHT22;7826;49.784;9.934;2023-05-20T11:18:09;18.40;97.40
15450;DHT22;7826;49.784;9.934;2023-05-20T11:20:36;19.00;96.00
15450;DHT22;7826;49.784;9.934;2023-05-20T11:23:05;18.80;95.50
15450;DHT22;7826;49.784;9.934;2023-05-20T11:25:34;18.90;95.30
15450;DHT22;7826;49.784;9.934;2023-05-20T11:28:02;19.00;95.10
15450;DHT22;7826;49.784;9.934;2023-05-20T11:30:29;19.20;94.70
15450;DHT22;7826;49.784;9.934;2023-05-20T11:33:01;19.00;94.10
15450;DHT22;7826;49.784;9.934;2023-05-20T11:35:29;18.70;94.90
15450;DHT22;7826;49.784;9.934;2023-05-20T11:38:03;18.50;96.40
15450;DHT22;7826;49.784;9.934;2023-05-20T11:40:33;18.90;95.50
15450;DHT22;7826;49.784;9.934;2023-05-20T11:43:13;19.30;94.70
15450;DHT22;7826;49.784;9.934;2023-05-20T11:45:52;19.50;93.70
15450;DHT22;7826;49.784;9.934;2023-05-20T11:48:33;19.30;93.80
15450;DHT22;7826;49.784;9.934;2023-05-20T11:51:27;19.20;93.80
15450;DHT22;7826;49.784;9.934;2023-05-20T11:54:05;19.20;93.40
15450;DHT22;7826;49.784;9.934;2023-05-20T11:57:11;19.50;92.80
15450;DHT22;7826;49.784;9.934;2023-05-20T12:00:19;19.20;93.60
15450;DHT22;7826;49.784;9.934;2023-05-20T12:02:59;19.20;92.90
15450;DHT22;7826;49.784;9.934;2023-05-20T12:05:33;19.20;93.20
15450;DHT22;7826;49.784;9.934;2023-05-20T12:08:04;19.20;93.30
15450;DHT22;7826;49.784;9.934;2023-05-20T12:10:50;19.40;93.30
15450;DHT22;7826;49.784;9.934;2023-05-20T12:13:19;19.50;92.20
15450;DHT22;7826;49.784;9.934;2023-05-20T12:15:45;19.60;92.40
15450;DHT22;7826;49.784;9.934;2023-05-20T12:18:12;19.80;92.10
15450;DHT22;7826;49.784;9.934;2023-05-20T12:20:39;19.80;91.50
15450;DHT22;7826;49.784;9.934;2023-05-20T12:23:06;19.30;92.30
15450;DHT22;7826;49.784;9.934;2023-05-20T12:25:32;19.40;92.70
15450;DHT22;7826;49.784;9.934;2023-05-20T12:28:01;19.60;91.90
15450;DHT22;7826;49.784;9.934;2023-05-20T12:30:27;19.50;91.90
15450;DHT22;7826;49.784;9.934;2023-05-20T12:32:54;19.70;91.70
15450;DHT22;7826;49.784;9.934;2023-05-20T12:35:24;19.90;91.00
15450;DHT22;7826;49.784;9.934;2023-05-20T12:37:51;19.60;91.00
15450;DHT22;7826;49.784;9.934;2023-05-20T12:40:18;19.20;91.90
15450;DHT22;7826;49.784;9.934;2023-05-20T12:42:45;19.30;92.50
15450;DHT22;7826;49.784;9.934;2023-05-20T12:45:11;19.50;92.00
15450;DHT22;7826;49.784;9.934;2023-05-20T12:47:38;19.50;91.70
15450;DHT22;7826;49.784;9.934;2023-05-20T12:50:05;19.50;91.80
15450;DHT22;7826;49.784;9.934;2023-05-20T12:52:32;19.70;91.80
15450;DHT22;7826;49.784;9.934;2023-05-20T12:54:58;19.80;91.80
15450;DHT22;7826;49.784;9.934;2023-05-20T12:57:25;20.00;91.00
15450;DHT22;7826;49.784;9.934;2023-05-20T12:59:52;19.90;90.90
15450;DHT22;7826;49.784;9.934;2023-05-20T13:02:19;20.20;90.70
15450;DHT22;7826;49.784;9.934;2023-05-20T13:04:46;20.20;90.50
15450;DHT22;7826;49.784;9.934;2023-05-20T13:07:12;20.00;90.70
15450;DHT22;7826;49.784;9.934;2023-05-20T13:09:39;19.80;91.10
15450;DHT22;7826;49.784;9.934;2023-05-20T13:12:06;20.00;90.70
15450;DHT22;7826;49.784;9.934;2023-05-20T13:14:32;19.80;90.70
15450;DHT22;7826;49.784;9.934;2023-05-20T13:16:59;20.20;90.10
15450;DHT22;7826;49.784;9.934;2023-05-20T13:19:25;20.70;89.50
15450;DHT22;7826;49.784;9.934;2023-05-20T13:21:52;20.80;89.20
15450;DHT22;7826;49.784;9.934;2023-05-20T13:24:21;20.90;89.40
15450;DHT22;7826;49.784;9.934;2023-05-20T13:26:48;20.40;89.30
15450;DHT22;7826;49.784;9.934;2023-05-20T13:29:14;20.10;89.80
15450;DHT22;7826;49.784;9.934;2023-05-20T13:31:41;20.40;89.70
15450;DHT22;7826;49.784;9.934;2023-05-20T13:34:08;20.20;89.30
15450;DHT22;7826;49.784;9.934;2023-05-20T13:36:34;20.40;89.30
15450;DHT22;7826;49.784;9.934;2023-05-20T13:39:01;20.40;88.20
15450;DHT22;7826;49.784;9.934;2023-05-20T13:41:27;20.40;88.00
15450;DHT22;7826;49.784;9.934;2023-05-20T13:43:55;20.50;88.10
15450;DHT22;7826;49.784;9.934;2023-05-20T13:46:22;20.40;87.60
15450;DHT22;7826;49.784;9.934;2023-05-20T13:48:49;20.60;89.10
15450;DHT22;7826;49.784;9.934;2023-05-20T13:51:15;20.50;87.10
15450;DHT22;7826;49.784;9.934;2023-05-20T13:53:48;20.40;88.00
15450;DHT22;7826;49.784;9.934;2023-05-20T13:56:15;20.90;88.30
15450;DHT22;7826;49.784;9.934;2023-05-20T13:58:41;20.90;87.40
15450;DHT22;7826;49.784;9.934;2023-05-20T14:01:08;20.90;85.20
15450;DHT22;7826;49.784;9.934;2023-05-20T14:03:34;20.90;86.40
15450;DHT22;7826;49.784;9.934;2023-05-20T14:06:02;20.80;85.10
15450;DHT22;7826;49.784;9.934;2023-05-20T14:08:29;20.70;86.80
15450;DHT22;7826;49.784;9.934;2023-05-20T14:10:55;20.80;86.00
15450;DHT22;7826;49.784;9.934;2023-05-20T14:13:22;21.00;83.90
15450;DHT22;7826;49.784;9.934;2023-05-20T14:15:49;21.00;84.40
15450;DHT22;7826;49.784;9.934;2023-05-20T14:18:20;20.80;85.20
15450;DHT22;7826;49.784;9.934;2023-05-20T14:20:47;20.80;85.30
15450;DHT22;7826;49.784;9.934;2023-05-20T14:23:16;20.70;86.50
15450;DHT22;7826;49.784;9.934;2023-05-20T14:25:55;20.80;86.20
15450;DHT22;7826;49.784;9.934;2023-05-20T14:28:22;20.90;85.00
15450;DHT22;7826;49.784;9.934;2023-05-20T14:30:48;21.10;85.40
15450;DHT22;7826;49.784;9.934;2023-05-20T14:33:15;21.10;84.20
15450;DHT22;7826;49.784;9.934;2023-05-20T14:35:42;20.90;85.40
15450;DHT22;7826;49.784;9.934;2023-05-20T14:38:08;20.80;84.70
15450;DHT22;7826;49.784;9.934;2023-05-20T14:40:35;20.80;85.30
15450;DHT22;7826;49.784;9.934;2023-05-20T14:43:02;20.80;84.60
15450;DHT22;7826;49.784;9.934;2023-05-20T14:45:28;20.80;86.20
15450;DHT22;7826;49.784;9.934;2023-05-20T14:47:55;20.60;85.40
15450;DHT22;7826;49.784;9.934;2023-05-20T14:50:21;20.50;86.70
15450;DHT22;7826;49.784;9.934;2023-05-20T14:52:48;20.70;86.70
15450;DHT22;7826;49.784;9.934;2023-05-20T14:55:15;20.70;85.40
15450;DHT22;7826;49.784;9.934;2023-05-20T14:57:42;20.50;85.60
15450;DHT22;7826;49.784;9.934;2023-05-20T15:00:09;20.70;86.80
15450;DHT22;7826;49.784;9.934;2023-05-20T15:02:36;20.80;85.30
15450;DHT22;7826;49.784;9.934;2023-05-20T15:05:03;20.60;86.00
15450;DHT22;7826;49.784;9.934;2023-05-20T15:07:30;20.10;87.20
15450;DHT22;7826;49.784;9.934;2023-05-20T15:09:56;20.20;88.50
15450;DHT22;7826;49.784;9.934;2023-05-20T15:12:23;20.20;88.30
15450;DHT22;7826;49.784;9.934;2023-05-20T15:14:50;20.30;86.80
15450;DHT22;7826;49.784;9.934;2023-05-20T15:17:16;20.20;87.60
15450;DHT22;7826;49.784;9.934;2023-05-20T15:19:42;20.10;88.00
15450;DHT22;7826;49.784;9.934;2023-05-20T15:22:09;20.20;88.30
15450;DHT22;7826;49.784;9.934;2023-05-20T15:24:36;20.30;87.80
15450;DHT22;7826;49.784;9.934;2023-05-20T15:27:02;20.00;88.80
15450;DHT22;7826;49.784;9.934;2023-05-20T15:29:29;20.10;89.60
15450;DHT22;7826;49.784;9.934;2023-05-20T15:31:55;20.30;88.30
15450;DHT22;7826;49.784;9.934;2023-05-20T15:34:22;20.50;88.40
15450;DHT22;7826;49.784;9.934;2023-05-20T15:36:48;20.50;88.10
15450;DHT22;7826;49.784;9.934;2023-05-20T15:39:15;20.60;87.50
15450;DHT22;7826;49.784;9.934;2023-05-20T15:41:42;20.60;88.10
15450;DHT22;7826;49.784;9.934;2023-05-20T15:44:08;20.40;88.60
15450;DHT22;7826;49.784;9.934;2023-05-20T15:46:35;20.30;88.10
15450;DHT22;7826;49.784;9.934;2023-05-20T15:49:01;20.20;87.70
15450;DHT22;7826;49.784;9.934;2023-05-20T15:51:28;20.30;87.40
15450;DHT22;7826;49.784;9.934;2023-05-20T15:53:54;20.30;87.60
15450;DHT22;7826;49.784;9.934;2023-05-20T15:56:21;20.10;87.80